createdAt,value
2024-04-10T00:00:48.796Z,1013.31
2024-04-10T00:01:48.815Z,1013.35
2024-04-10T00:02:48.769Z,1013.29
2024-04-10T00:03:48.868Z,1013.30
2024-04-10T00:04:49.013Z,1013.30
2024-04-10T00:05:48.792Z,1013.26
2024-04-10T00:06:48.758Z,1013.27
2024-04-10T00:07:48.866Z,1013.30
2024-04-10T00:08:48.742Z,1013.28
2024-04-10T00:09:48.747Z,1013.31
2024-04-10T00:10:48.798Z,1013.25
2024-04-10T00:11:48.790Z,1013.28
2024-04-10T00:12:48.756Z,1013.28
2024-04-10T00:13:48.807Z,1013.23
2024-04-10T00:14:48.749Z,1013.19
2024-04-10T00:15:48.747Z,1013.15
2024-04-10T00:16:48.793Z,1013.13
2024-04-10T00:17:48.907Z,1013.13
2024-04-10T00:18:48.899Z,1013.12
2024-04-10T00:19:48.750Z,1013.14
2024-04-10T00:20:48.715Z,1013.18
2024-04-10T00:21:48.749Z,1013.17
2024-04-10T00:22:48.782Z,1013.22
2024-04-10T00:23:48.699Z,1013.23
2024-04-10T00:24:48.704Z,1013.16
2024-04-10T00:25:48.713Z,1013.15
2024-04-10T00:26:48.694Z,1013.16
2024-04-10T00:27:48.700Z,1013.16
2024-04-10T00:28:48.751Z,1013.23
2024-04-10T00:29:48.676Z,1013.23
2024-04-10T00:30:48.686Z,1013.25
2024-04-10T00:31:48.705Z,1013.21
2024-04-10T00:32:48.880Z,1013.21
2024-04-10T00:33:48.830Z,1013.18
2024-04-10T00:34:48.762Z,1013.18
2024-04-10T00:35:48.661Z,1013.22
2024-04-10T00:36:48.664Z,1013.15
2024-04-10T00:37:48.709Z,1013.17
2024-04-10T00:38:48.674Z,1013.11
2024-04-10T00:39:48.649Z,1013.08
2024-04-10T00:40:48.700Z,1013.08
2024-04-10T00:41:48.649Z,1013.15
2024-04-10T00:42:48.642Z,1013.13
2024-04-10T00:43:48.738Z,1013.12
2024-04-10T00:44:48.630Z,1013.17
2024-04-10T00:45:48.629Z,1013.21
2024-04-10T00:46:48.709Z,1013.21
2024-04-10T00:47:48.758Z,1013.30
2024-04-10T00:48:48.817Z,1013.30
2024-04-10T00:49:48.793Z,1013.36
2024-04-10T00:50:48.608Z,1013.43
2024-04-10T00:51:48.616Z,1013.42
2024-04-10T00:52:48.658Z,1013.42
2024-04-10T00:53:48.601Z,1013.44
2024-04-10T00:54:48.597Z,1013.48
2024-04-10T00:55:48.619Z,1013.53
2024-04-10T00:56:48.610Z,1013.54
2024-04-10T00:57:48.591Z,1013.62
2024-04-10T00:58:48.642Z,1013.61
2024-04-10T00:59:48.595Z,1013.64
2024-04-10T01:00:48.645Z,1013.65
2024-04-10T01:01:48.620Z,1013.69
2024-04-10T01:02:48.620Z,1013.65
2024-04-10T01:03:49.007Z,1013.68
2024-04-10T01:04:48.668Z,1013.68
2024-04-10T01:05:48.599Z,1013.73
2024-04-10T01:06:48.567Z,1013.74
2024-04-10T01:07:48.610Z,1013.74
2024-04-10T01:08:48.582Z,1013.70
2024-04-10T01:09:48.549Z,1013.65
2024-04-10T01:10:48.634Z,1013.61
2024-04-10T01:11:48.650Z,1013.62
2024-04-10T01:12:48.553Z,1013.64
2024-04-10T01:13:48.621Z,1013.68
2024-04-10T01:14:48.542Z,1013.71
2024-04-10T01:15:48.536Z,1013.78
2024-04-10T01:16:48.674Z,1013.79
2024-04-10T01:17:48.635Z,1013.82
2024-04-10T01:18:48.610Z,1013.83
2024-04-10T01:19:48.589Z,1013.85
2024-04-10T01:20:48.516Z,1013.89
2024-04-10T01:21:48.513Z,1013.81
2024-04-10T01:22:48.598Z,1013.79
2024-04-10T01:23:48.503Z,1013.73
2024-04-10T01:24:48.511Z,1013.78
2024-04-10T01:25:48.526Z,1013.84
2024-04-10T01:26:48.490Z,1013.89
2024-04-10T01:27:48.506Z,1013.89
2024-04-10T01:28:48.694Z,1013.96
2024-04-10T01:29:48.478Z,1014.00
2024-04-10T01:30:48.476Z,1013.99
2024-04-10T01:31:48.544Z,1014.05
2024-04-10T01:32:48.653Z,1014.10
2024-04-10T01:33:48.537Z,1014.06
2024-04-10T01:34:48.594Z,1014.11
2024-04-10T01:35:48.476Z,1014.09
2024-04-10T01:36:48.475Z,1014.07
2024-04-10T01:37:48.555Z,1014.07
2024-04-10T01:38:48.487Z,1014.05
2024-04-10T01:39:48.451Z,1014.04
2024-04-10T01:40:48.466Z,1014.08
2024-04-10T01:41:48.479Z,1014.03
2024-04-10T01:42:48.446Z,1014.04
2024-04-10T01:43:48.458Z,1014.03
2024-04-10T01:44:48.432Z,1014.08
2024-04-10T01:45:48.429Z,1014.05
2024-04-10T01:46:48.495Z,1014.06
2024-04-10T01:47:48.616Z,1014.04
2024-04-10T01:48:48.573Z,1014.03
2024-04-10T01:49:48.415Z,1013.98
2024-04-10T01:50:48.427Z,1013.97
2024-04-10T01:51:48.422Z,1013.96
2024-04-10T01:52:48.446Z,1013.93
2024-04-10T01:53:48.415Z,1013.99
2024-04-10T01:54:48.402Z,1013.96
2024-04-10T01:55:48.439Z,1014.00
2024-04-10T01:56:48.407Z,1013.96
2024-04-10T01:57:48.399Z,1013.98
2024-04-10T01:58:48.414Z,1014.05
2024-04-10T01:59:48.384Z,1014.07
2024-04-10T02:00:48.403Z,1014.07
2024-04-10T02:01:48.419Z,1014.08
2024-04-10T02:02:48.482Z,1014.07
2024-04-10T02:03:48.452Z,1014.09
2024-04-10T02:04:48.440Z,1014.11
2024-04-10T02:05:48.440Z,1014.15
2024-04-10T02:06:48.399Z,1014.12
2024-04-10T02:07:48.509Z,1014.15
2024-04-10T02:08:48.364Z,1014.13
2024-04-10T02:09:48.354Z,1014.14
2024-04-10T02:10:48.465Z,1014.21
2024-04-10T02:11:48.422Z,1014.25
2024-04-10T02:12:48.347Z,1014.29
2024-04-10T02:13:48.439Z,1014.36
2024-04-10T02:14:48.346Z,1014.33
2024-04-10T02:15:48.340Z,1014.31
2024-04-10T02:16:48.546Z,1014.27
2024-04-10T02:17:48.443Z,1014.25
2024-04-10T02:18:48.328Z,1014.20
2024-04-10T02:19:48.343Z,1014.19
2024-04-10T02:20:48.364Z,1014.18
2024-04-10T02:21:48.322Z,1014.19
2024-04-10T02:22:48.364Z,1014.21
2024-04-10T02:23:48.310Z,1014.25
2024-04-10T02:24:48.309Z,1014.24
2024-04-10T02:25:48.360Z,1014.29
2024-04-10T02:26:48.313Z,1014.34
2024-04-10T02:27:48.305Z,1014.31
2024-04-10T02:28:48.352Z,1014.30
2024-04-10T02:29:48.298Z,1014.25
2024-04-10T02:30:48.310Z,1014.28
2024-04-10T02:31:48.308Z,1014.25
2024-04-10T02:32:48.486Z,1014.25
2024-04-10T02:33:48.392Z,1014.25
2024-04-10T02:34:48.353Z,1014.26
2024-04-10T02:35:48.289Z,1014.28
2024-04-10T02:36:48.274Z,1014.27
2024-04-10T02:37:48.322Z,1014.29
2024-04-10T02:38:48.272Z,1014.37
2024-04-10T02:39:48.267Z,1014.35
2024-04-10T02:40:48.287Z,1014.38
2024-04-10T02:41:48.256Z,1014.43
2024-04-10T02:42:48.365Z,1014.43
2024-04-10T02:43:48.310Z,1014.44
2024-04-10T02:44:48.242Z,1014.48
2024-04-10T02:45:48.274Z,1014.49
2024-04-10T02:46:48.251Z,1014.50
2024-04-10T02:47:48.330Z,1014.49
2024-04-10T02:48:48.267Z,1014.53
2024-04-10T02:49:48.467Z,1014.54
2024-04-10T02:50:48.235Z,1014.54
2024-04-10T02:51:48.215Z,1014.55
2024-04-10T02:52:48.252Z,1014.56
2024-04-10T02:53:48.215Z,1014.57
2024-04-10T02:54:48.221Z,1014.57
2024-04-10T02:55:48.236Z,1014.60
2024-04-10T02:56:48.218Z,1014.59
2024-04-10T02:57:48.222Z,1014.61
2024-04-10T02:58:48.247Z,1014.62
2024-04-10T02:59:48.207Z,1014.63
2024-04-10T03:00:48.263Z,1014.64
2024-04-10T03:01:48.279Z,1014.66
2024-04-10T03:02:48.382Z,1014.74
2024-04-10T03:03:48.278Z,1014.71
2024-04-10T03:04:48.230Z,1014.74
2024-04-10T03:05:48.199Z,1014.77
2024-04-10T03:06:48.176Z,1014.82
2024-04-10T03:07:48.197Z,1014.84
2024-04-10T03:08:48.181Z,1014.88
2024-04-10T03:09:48.164Z,1014.90
2024-04-10T03:10:48.279Z,1014.97
2024-04-10T03:11:48.210Z,1014.97
2024-04-10T03:12:51.273Z,1015.00
2024-04-10T03:13:48.173Z,1015.07
2024-04-10T03:14:48.163Z,1015.08
2024-04-10T03:15:48.156Z,1015.06
2024-04-10T03:16:48.219Z,1015.11
2024-04-10T03:17:48.265Z,1015.11
2024-04-10T03:18:48.214Z,1015.18
2024-04-10T03:19:48.157Z,1015.24
2024-04-10T03:20:48.168Z,1015.21
2024-04-10T03:21:48.146Z,1015.22
2024-04-10T03:22:48.207Z,1015.22
2024-04-10T03:23:48.168Z,1015.23
2024-04-10T03:24:48.118Z,1015.25
2024-04-10T03:25:48.156Z,1015.27
2024-04-10T03:26:48.108Z,1015.32
2024-04-10T03:27:48.110Z,1015.27
2024-04-10T03:28:48.124Z,1015.29
2024-04-10T03:29:48.112Z,1015.24
2024-04-10T03:30:48.102Z,1015.25
2024-04-10T03:31:48.160Z,1015.27
2024-04-10T03:32:48.162Z,1015.30
2024-04-10T03:33:48.150Z,1015.29
2024-04-10T03:34:48.128Z,1015.33
2024-04-10T03:35:48.089Z,1015.39
2024-04-10T03:36:48.078Z,1015.35
2024-04-10T03:37:48.114Z,1015.35
2024-04-10T03:38:48.083Z,1015.37
2024-04-10T03:39:48.076Z,1015.42
2024-04-10T03:40:48.117Z,1015.43
2024-04-10T03:41:48.087Z,1015.45
2024-04-10T03:42:48.096Z,1015.45
2024-04-10T03:43:48.113Z,1015.51
2024-04-10T03:44:48.072Z,1015.50
2024-04-10T03:45:48.067Z,1015.54
2024-04-10T03:46:48.127Z,1015.55
2024-04-10T03:47:48.199Z,1015.57
2024-04-10T03:48:48.139Z,1015.57
2024-04-10T03:49:48.119Z,1015.55
2024-04-10T03:50:48.130Z,1015.56
2024-04-10T03:51:48.066Z,1015.56
2024-04-10T03:52:48.079Z,1015.60
2024-04-10T03:53:48.053Z,1015.57
2024-04-10T03:54:48.024Z,1015.61
2024-04-10T03:55:48.046Z,1015.65
2024-04-10T03:56:48.010Z,1015.65
2024-04-10T03:57:48.290Z,1015.65
2024-04-10T03:58:48.019Z,1015.62
2024-04-10T03:59:48.031Z,1015.72
2024-04-10T04:00:48.019Z,1015.67
2024-04-10T04:01:48.064Z,1015.70
2024-04-10T04:02:48.060Z,1015.70
2024-04-10T04:03:48.093Z,1015.74
2024-04-10T04:04:48.086Z,1015.79
2024-04-10T04:05:48.038Z,1015.80
2024-04-10T04:06:47.983Z,1015.85
2024-04-10T04:07:48.009Z,1015.84
2024-04-10T04:08:47.978Z,1015.83
2024-04-10T04:09:47.983Z,1015.83
2024-04-10T04:10:48.186Z,1015.80
2024-04-10T04:11:48.012Z,1015.82
2024-04-10T04:12:48.037Z,1015.86
2024-04-10T04:13:47.994Z,1015.86
2024-04-10T04:14:47.971Z,1015.93
2024-04-10T04:15:47.977Z,1015.86
2024-04-10T04:16:48.027Z,1015.90
2024-04-10T04:17:48.165Z,1015.94
2024-04-10T04:18:48.019Z,1015.98
2024-04-10T04:19:48.068Z,1016.04
2024-04-10T04:20:47.950Z,1016.00
2024-04-10T04:21:47.963Z,1016.02
2024-04-10T04:22:47.975Z,1016.04
2024-04-10T04:23:47.948Z,1016.05
2024-04-10T04:24:47.940Z,1016.09
2024-04-10T04:25:47.990Z,1016.14
2024-04-10T04:26:47.940Z,1016.17
2024-04-10T04:27:47.942Z,1016.18
2024-04-10T04:28:48.024Z,1016.20
2024-04-10T04:29:47.911Z,1016.17
2024-04-10T04:30:47.913Z,1016.19
2024-04-10T04:31:48.032Z,1016.22
2024-04-10T04:32:48.003Z,1016.24
2024-04-10T04:33:48.030Z,1016.25
2024-04-10T04:34:47.918Z,1016.24
2024-04-10T04:35:47.906Z,1016.28
2024-04-10T04:36:47.900Z,1016.27
2024-04-10T04:37:48.011Z,1016.36
2024-04-10T04:38:47.899Z,1016.42
2024-04-10T04:39:47.906Z,1016.46
2024-04-10T04:40:47.935Z,1016.49
2024-04-10T04:41:47.872Z,1016.53
2024-04-10T04:42:47.898Z,1016.59
2024-04-10T04:43:47.934Z,1016.60
2024-04-10T04:44:48.011Z,1016.66
2024-04-10T04:45:47.863Z,1016.64
2024-04-10T04:46:47.982Z,1016.57
2024-04-10T04:47:47.966Z,1016.70
2024-04-10T04:48:47.919Z,1016.71
2024-04-10T04:49:47.941Z,1016.74
2024-04-10T04:50:48.210Z,1016.77
2024-04-10T04:51:47.875Z,1016.79
2024-04-10T04:52:47.955Z,1016.81
2024-04-10T04:53:47.855Z,1016.84
2024-04-10T04:54:47.843Z,1016.86
2024-04-10T04:55:47.879Z,1016.90
2024-04-10T04:56:47.837Z,1016.89
2024-04-10T04:57:47.843Z,1016.90
2024-04-10T04:58:47.839Z,1016.92
2024-04-10T04:59:47.840Z,1016.93
2024-04-10T05:00:47.870Z,1017.00
2024-04-10T05:01:47.848Z,1016.96
2024-04-10T05:02:47.864Z,1016.99
2024-04-10T05:03:47.952Z,1016.99
2024-04-10T05:04:47.818Z,1017.01
2024-04-10T05:05:47.841Z,1017.03
2024-04-10T05:06:47.812Z,1017.01
2024-04-10T05:07:47.813Z,1017.04
2024-04-10T05:08:47.795Z,1016.99
2024-04-10T05:09:47.791Z,1017.02
2024-04-10T05:10:47.801Z,1017.04
2024-04-10T05:11:47.865Z,1017.11
2024-04-10T05:12:47.778Z,1017.18
2024-04-10T05:13:47.829Z,1017.18
2024-04-10T05:14:47.779Z,1017.20
2024-04-10T05:15:47.842Z,1017.22
2024-04-10T05:16:47.774Z,1017.21
2024-04-10T05:17:47.889Z,1017.22
2024-04-10T05:18:47.765Z,1017.23
2024-04-10T05:19:47.775Z,1017.25
2024-04-10T05:20:47.799Z,1017.24
2024-04-10T05:21:47.752Z,1017.24
2024-04-10T05:22:47.759Z,1017.27
2024-04-10T05:23:47.760Z,1017.22
2024-04-10T05:24:47.745Z,1017.28
2024-04-10T05:25:47.743Z,1017.27
2024-04-10T05:26:47.754Z,1017.34
2024-04-10T05:27:47.741Z,1017.35
2024-04-10T05:28:47.730Z,1017.33
2024-04-10T05:29:47.738Z,1017.42
2024-04-10T05:30:47.738Z,1017.35
2024-04-10T05:31:47.733Z,1017.36
2024-04-10T05:32:47.866Z,1017.37
2024-04-10T05:33:47.921Z,1017.40
2024-04-10T05:34:47.741Z,1017.41
2024-04-10T05:35:47.795Z,1017.42
2024-04-10T05:36:47.726Z,1017.46
2024-04-10T05:37:47.741Z,1017.46
2024-04-10T05:38:47.714Z,1017.47
2024-04-10T05:39:47.698Z,1017.49
2024-04-10T05:40:47.694Z,1017.53
2024-04-10T05:41:47.737Z,1017.53
2024-04-10T05:42:47.716Z,1017.61
2024-04-10T05:43:47.700Z,1017.58
2024-04-10T05:44:47.703Z,1017.62
2024-04-10T05:45:47.678Z,1017.62
2024-04-10T05:46:47.738Z,1017.61
2024-04-10T05:47:47.793Z,1017.60
2024-04-10T05:48:47.746Z,1017.62
2024-04-10T05:49:47.671Z,1017.63
2024-04-10T05:50:47.707Z,1017.66
2024-04-10T05:51:47.662Z,1017.65
2024-04-10T05:52:47.652Z,1017.69
2024-04-10T05:53:47.703Z,1017.69
2024-04-10T05:54:47.722Z,1017.63
2024-04-10T05:55:47.653Z,1017.67
2024-04-10T05:56:47.652Z,1017.70
2024-04-10T05:57:47.653Z,1017.66
2024-04-10T05:58:47.639Z,1017.61
2024-04-10T05:59:47.658Z,1017.70
2024-04-10T06:00:47.683Z,1017.73
2024-04-10T06:01:47.634Z,1017.71
2024-04-10T06:02:47.672Z,1017.73
2024-04-10T06:03:47.781Z,1017.71
2024-04-10T06:04:47.617Z,1017.82
2024-04-10T06:05:47.760Z,1017.77
2024-04-10T06:06:47.634Z,1017.79
2024-04-10T06:07:47.615Z,1017.80
2024-04-10T06:08:47.619Z,1017.82
2024-04-10T06:09:47.611Z,1017.88
2024-04-10T06:10:47.625Z,1017.88
2024-04-10T06:11:47.692Z,1017.87
2024-04-10T06:12:47.620Z,1017.95
2024-04-10T06:13:47.602Z,1017.91
2024-04-10T06:14:47.595Z,1017.93
2024-04-10T06:15:47.680Z,1017.88
2024-04-10T06:16:47.607Z,1017.92
2024-04-10T06:17:47.680Z,1017.93
2024-04-10T06:18:47.595Z,1017.97
2024-04-10T06:19:47.592Z,1017.95
2024-04-10T06:20:47.644Z,1017.96
2024-04-10T06:21:47.579Z,1017.93
2024-04-10T06:22:47.574Z,1017.97
2024-04-10T06:23:47.596Z,1017.98
2024-04-10T06:24:47.562Z,1017.96
2024-04-10T06:25:47.557Z,1017.92
2024-04-10T06:26:47.683Z,1017.94
2024-04-10T06:27:47.564Z,1017.95
2024-04-10T06:28:47.563Z,1018.00
2024-04-10T06:29:47.581Z,1017.97
2024-04-10T06:30:47.561Z,1017.96
2024-04-10T06:31:47.560Z,1017.97
2024-04-10T06:32:47.680Z,1017.99
2024-04-10T06:33:47.743Z,1018.05
2024-04-10T06:34:47.535Z,1018.04
2024-04-10T06:35:47.573Z,1018.09
2024-04-10T06:36:47.535Z,1018.08
2024-04-10T06:37:47.553Z,1018.12
2024-04-10T06:38:47.524Z,1018.12
2024-04-10T06:39:47.533Z,1018.19
2024-04-10T06:40:47.530Z,1018.16
2024-04-10T06:41:47.525Z,1018.18
2024-04-10T06:42:47.554Z,1018.19
2024-04-10T06:43:47.547Z,1018.21
2024-04-10T06:44:47.503Z,1018.21
2024-04-10T06:45:47.503Z,1018.20
2024-04-10T06:46:47.539Z,1018.17
2024-04-10T06:47:47.716Z,1018.18
2024-04-10T06:48:47.717Z,1018.22
2024-04-10T06:49:47.510Z,1018.24
2024-04-10T06:50:47.561Z,1018.26
2024-04-10T06:51:47.488Z,1018.31
2024-04-10T06:52:47.489Z,1018.28
2024-04-10T06:53:47.502Z,1018.30
2024-04-10T06:54:47.501Z,1018.31
2024-04-10T06:55:47.487Z,1018.38
2024-04-10T06:56:47.475Z,1018.30
2024-04-10T06:57:47.489Z,1018.37
2024-04-10T06:58:47.493Z,1018.40
2024-04-10T06:59:47.523Z,1018.41
2024-04-10T07:00:47.514Z,1018.36
2024-04-10T07:01:47.505Z,1018.32
2024-04-10T07:02:47.580Z,1018.37
2024-04-10T07:03:47.606Z,1018.38
2024-04-10T07:04:47.511Z,1018.42
2024-04-10T07:05:47.602Z,1018.45
2024-04-10T07:06:47.460Z,1018.44
2024-04-10T07:07:47.443Z,1018.53
2024-04-10T07:08:47.511Z,1018.52
2024-04-10T07:09:47.534Z,1018.59
2024-04-10T07:10:47.505Z,1018.61
2024-04-10T07:11:47.534Z,1018.58
2024-04-10T07:12:47.442Z,1018.60
2024-04-10T07:13:47.454Z,1018.65
2024-04-10T07:14:47.481Z,1018.63
2024-04-10T07:15:47.544Z,1018.66
2024-04-10T07:16:47.522Z,1018.73
2024-04-10T07:17:47.495Z,1018.71
2024-04-10T07:18:47.469Z,1018.62
2024-04-10T07:19:47.567Z,1018.69
2024-04-10T07:20:47.743Z,1018.74
2024-04-10T07:21:47.421Z,1018.73
2024-04-10T07:22:47.446Z,1018.75
2024-04-10T07:23:47.451Z,1018.73
2024-04-10T07:24:47.409Z,1018.80
2024-04-10T07:25:47.414Z,1018.82
2024-04-10T07:26:47.456Z,1018.76
2024-04-10T07:27:47.425Z,1018.78
2024-04-10T07:28:48.229Z,1018.83
2024-04-10T07:29:47.421Z,1018.72
2024-04-10T07:30:47.438Z,1018.73
2024-04-10T07:31:47.411Z,1018.86
2024-04-10T07:32:47.720Z,1018.86
2024-04-10T07:33:47.595Z,1018.93
2024-04-10T07:34:47.475Z,1018.96
2024-04-10T07:35:47.418Z,1018.96
2024-04-10T07:36:49.879Z,1018.96
2024-04-10T07:37:47.480Z,1019.02
2024-04-10T07:38:47.399Z,1018.99
2024-04-10T07:39:47.376Z,1018.99
2024-04-10T07:40:47.375Z,1018.98
2024-04-10T07:41:47.651Z,1018.99
2024-04-10T07:42:47.376Z,1019.04
2024-04-10T07:43:47.369Z,1018.96
2024-04-10T07:44:47.457Z,1019.02
2024-04-10T07:45:47.409Z,1019.04
2024-04-10T07:46:47.381Z,1019.03
2024-04-10T07:47:47.556Z,1019.09
2024-04-10T07:48:47.843Z,1019.10
2024-04-10T07:49:47.378Z,1019.15
2024-04-10T07:50:47.372Z,1019.16
2024-04-10T07:51:47.396Z,1019.16
2024-04-10T07:52:47.356Z,1019.30
2024-04-10T07:53:47.369Z,1019.25
2024-04-10T07:54:47.375Z,1019.30
2024-04-10T07:55:47.356Z,1019.30
2024-04-10T07:56:47.437Z,1019.32
2024-04-10T07:57:47.348Z,1019.29
2024-04-10T07:58:47.380Z,1019.32
2024-04-10T07:59:47.363Z,1019.36
2024-04-10T08:00:47.439Z,1019.34
2024-04-10T08:01:47.372Z,1019.36
2024-04-10T08:02:47.539Z,1019.36
2024-04-10T08:03:47.563Z,1019.44
2024-04-10T08:04:47.382Z,1019.42
2024-04-10T08:05:47.476Z,1019.47
2024-04-10T08:06:47.348Z,1019.44
2024-04-10T08:07:47.358Z,1019.39
2024-04-10T08:08:47.416Z,1019.45
2024-04-10T08:09:47.384Z,1019.45
2024-04-10T08:10:47.383Z,1019.50
2024-04-10T08:11:47.517Z,1019.53
2024-04-10T08:12:47.361Z,1019.52
2024-04-10T08:13:47.487Z,1019.57
2024-04-10T08:14:47.424Z,1019.56
2024-04-10T08:15:47.382Z,1019.55
2024-04-10T08:16:47.437Z,1019.53
2024-04-10T08:17:47.398Z,1019.58
2024-04-10T08:18:47.754Z,1019.56
2024-04-10T08:19:47.331Z,1019.62
2024-04-10T08:20:47.332Z,1019.54
2024-04-10T08:21:47.328Z,1019.66
2024-04-10T08:22:47.357Z,1019.68
2024-04-10T08:23:47.617Z,1019.64
2024-04-10T08:24:47.329Z,1019.61
2024-04-10T08:25:47.337Z,1019.65
2024-04-10T08:26:47.377Z,1019.69
2024-04-10T08:27:47.362Z,1019.70
2024-04-10T08:28:48.170Z,1019.70
2024-04-10T08:29:47.477Z,1019.70
2024-04-10T08:30:47.331Z,1019.75
2024-04-10T08:31:47.310Z,1019.71
2024-04-10T08:32:47.548Z,1019.72
2024-04-10T08:33:47.821Z,1019.74
2024-04-10T08:34:47.535Z,1019.74
2024-04-10T08:35:47.312Z,1019.87
2024-04-10T08:36:47.316Z,1019.87
2024-04-10T08:37:47.315Z,1019.89
2024-04-10T08:38:47.320Z,1019.87
2024-04-10T08:39:47.299Z,1019.89
2024-04-10T08:40:47.372Z,1019.97
2024-04-10T08:41:47.300Z,1019.88
2024-04-10T08:42:47.399Z,1019.89
2024-04-10T08:43:47.309Z,1019.98
2024-04-10T08:44:47.337Z,1019.92
2024-04-10T08:45:47.317Z,1019.92
2024-04-10T08:46:47.388Z,1019.94
2024-04-10T08:47:47.479Z,1019.99
2024-04-10T08:48:47.574Z,1020.01
2024-04-10T08:49:47.299Z,1020.05
2024-04-10T08:50:47.334Z,1020.05
2024-04-10T08:51:47.339Z,1020.18
2024-04-10T08:52:47.299Z,1020.15
2024-04-10T08:53:47.283Z,1020.16
2024-04-10T08:54:48.574Z,1020.17
2024-04-10T08:55:54.633Z,1020.20
2024-04-10T08:56:47.296Z,1020.22
2024-04-10T08:57:47.325Z,1020.20
2024-04-10T08:58:47.389Z,1020.24
2024-04-10T08:59:47.371Z,1020.29
2024-04-10T09:00:47.454Z,1020.29
2024-04-10T09:01:48.930Z,1020.20
2024-04-10T09:02:47.387Z,1020.30
2024-04-10T09:03:47.364Z,1020.30
2024-04-10T09:04:47.710Z,1020.23
2024-04-10T09:05:47.280Z,1020.28
2024-04-10T09:06:47.415Z,1020.30
2024-04-10T09:07:47.499Z,1020.32
2024-04-10T09:08:47.312Z,1020.35
2024-04-10T09:09:47.334Z,1020.35
2024-04-10T09:10:47.281Z,1020.37
2024-04-10T09:11:47.336Z,1020.36
2024-04-10T09:12:47.269Z,1020.41
2024-04-10T09:13:47.271Z,1020.43
2024-04-10T09:14:47.282Z,1020.49
2024-04-10T09:15:47.286Z,1020.49
2024-04-10T09:16:47.337Z,1020.56
2024-04-10T09:17:47.291Z,1020.53
2024-04-10T09:18:47.383Z,1020.51
2024-04-10T09:19:48.441Z,1020.51
2024-04-10T09:20:47.271Z,1020.55
2024-04-10T09:21:47.284Z,1020.63
2024-04-10T09:22:47.268Z,1020.60
2024-04-10T09:23:47.301Z,1020.63
2024-04-10T09:24:47.291Z,1020.62
2024-04-10T09:25:47.766Z,1020.63
2024-04-10T09:26:47.270Z,1020.62
2024-04-10T09:27:47.271Z,1020.63
2024-04-10T09:28:47.263Z,1020.65
2024-04-10T09:29:47.388Z,1020.66
2024-04-10T09:30:47.294Z,1020.63
2024-04-10T09:31:47.271Z,1020.61
2024-04-10T09:32:47.389Z,1020.60
2024-04-10T09:33:47.329Z,1020.68
2024-04-10T09:34:47.314Z,1020.65
2024-04-10T09:35:47.292Z,1020.68
2024-04-10T09:36:47.237Z,1020.73
2024-04-10T09:37:47.916Z,1020.73
2024-04-10T09:38:47.246Z,1020.73
2024-04-10T09:39:47.261Z,1020.78
2024-04-10T09:40:47.271Z,1020.75
2024-04-10T09:41:47.307Z,1020.78
2024-04-10T09:42:47.277Z,1020.80
2024-04-10T09:43:47.246Z,1020.78
2024-04-10T09:44:47.528Z,1020.83
2024-04-10T09:45:47.259Z,1020.81
2024-04-10T09:46:47.315Z,1020.83
2024-04-10T09:47:47.523Z,1020.82
2024-04-10T09:48:49.030Z,1020.82
2024-04-10T09:49:47.230Z,1020.89
2024-04-10T09:50:47.297Z,1020.86
2024-04-10T09:51:47.246Z,1020.83
2024-04-10T09:52:47.238Z,1020.88
2024-04-10T09:53:47.277Z,1020.86
2024-04-10T09:54:47.217Z,1020.84
2024-04-10T09:55:47.241Z,1020.82
2024-04-10T09:56:47.277Z,1020.84
2024-04-10T09:57:47.294Z,1020.89
2024-04-10T09:58:47.243Z,1020.84
2024-04-10T09:59:49.459Z,1020.88
2024-04-10T10:00:47.245Z,1020.93
2024-04-10T10:01:47.221Z,1020.92
2024-04-10T10:02:47.274Z,1020.90
2024-04-10T10:03:47.554Z,1020.93
2024-04-10T10:04:47.371Z,1020.93
2024-04-10T10:05:48.416Z,1020.96
2024-04-10T10:06:47.200Z,1020.97
2024-04-10T10:07:47.211Z,1020.98
2024-04-10T10:08:47.287Z,1020.97
2024-04-10T10:09:47.195Z,1020.90
2024-04-10T10:10:47.266Z,1020.92
2024-04-10T10:11:47.277Z,1020.90
2024-04-10T10:12:47.195Z,1020.92
2024-04-10T10:13:47.191Z,1020.95
2024-04-10T10:14:47.352Z,1020.99
2024-04-10T10:15:47.265Z,1020.99
2024-04-10T10:16:47.215Z,1021.05
2024-04-10T10:17:54.001Z,1021.06
2024-04-10T10:18:47.356Z,1021.05
2024-04-10T10:19:47.281Z,1021.00
2024-04-10T10:20:47.260Z,1021.04
2024-04-10T10:21:47.189Z,1021.05
2024-04-10T10:22:47.246Z,1021.08
2024-04-10T10:23:47.247Z,1021.07
2024-04-10T10:24:47.298Z,1021.15
2024-04-10T10:25:47.188Z,1021.15
2024-04-10T10:26:47.251Z,1021.21
2024-04-10T10:27:47.199Z,1021.12
2024-04-10T10:28:47.199Z,1021.20
2024-04-10T10:29:47.257Z,1021.18
2024-04-10T10:30:47.187Z,1021.25
2024-04-10T10:31:47.167Z,1021.22
2024-04-10T10:32:47.306Z,1021.20
2024-04-10T10:33:47.299Z,1021.18
2024-04-10T10:34:47.308Z,1021.21
2024-04-10T10:35:47.215Z,1021.18
2024-04-10T10:36:47.634Z,1021.17
2024-04-10T10:37:47.175Z,1021.17
2024-04-10T10:38:47.212Z,1021.20
2024-04-10T10:39:47.168Z,1021.16
2024-04-10T10:40:47.162Z,1021.23
2024-04-10T10:41:47.345Z,1021.23
2024-04-10T10:42:47.156Z,1021.19
2024-04-10T10:43:47.186Z,1021.28
2024-04-10T10:44:47.286Z,1021.21
2024-04-10T10:45:47.199Z,1021.25
2024-04-10T10:46:47.169Z,1021.27
2024-04-10T10:47:47.290Z,1021.34
2024-04-10T10:48:47.210Z,1021.25
2024-04-10T10:49:47.250Z,1021.31
2024-04-10T10:50:47.265Z,1021.29
2024-04-10T10:51:47.195Z,1021.31
2024-04-10T10:52:47.150Z,1021.33
2024-04-10T10:53:47.238Z,1021.34
2024-04-10T10:54:47.160Z,1021.31
2024-04-10T10:55:47.167Z,1021.27
2024-04-10T10:56:47.244Z,1021.39
2024-04-10T10:57:47.167Z,1021.28
2024-04-10T10:58:47.188Z,1021.31
2024-04-10T10:59:47.268Z,1021.31
2024-04-10T11:00:47.199Z,1021.30
2024-04-10T11:01:47.127Z,1021.28
2024-04-10T11:02:47.348Z,1021.27
2024-04-10T11:03:47.356Z,1021.26
2024-04-10T11:04:47.261Z,1021.29
2024-04-10T11:05:47.336Z,1021.34
2024-04-10T11:06:47.138Z,1021.32
2024-04-10T11:07:47.128Z,1021.34
2024-04-10T11:08:47.150Z,1021.31
2024-04-10T11:09:47.166Z,1021.36
2024-04-10T11:10:47.195Z,1021.31
2024-04-10T11:11:47.429Z,1021.39
2024-04-10T11:12:47.161Z,1021.43
2024-04-10T11:13:47.150Z,1021.43
2024-04-10T11:14:47.160Z,1021.45
2024-04-10T11:15:47.181Z,1021.40
2024-04-10T11:16:47.265Z,1021.45
2024-04-10T11:17:47.171Z,1021.44
2024-04-10T11:18:47.179Z,1021.49
2024-04-10T11:19:51.253Z,1021.52
2024-04-10T11:20:47.241Z,1021.48
2024-04-10T11:21:47.099Z,1021.55
2024-04-10T11:22:47.110Z,1021.52
2024-04-10T11:23:47.162Z,1021.53
2024-04-10T11:24:47.121Z,1021.51
2024-04-10T11:25:47.128Z,1021.62
2024-04-10T11:26:47.150Z,1021.61
2024-04-10T11:27:47.122Z,1021.65
2024-04-10T11:28:47.114Z,1021.67
2024-04-10T11:29:47.265Z,1021.67
2024-04-10T11:30:47.113Z,1021.67
2024-04-10T11:31:47.155Z,1021.73
2024-04-10T11:32:47.184Z,1021.72
2024-04-10T11:33:47.384Z,1021.69
2024-04-10T11:34:47.132Z,1021.73
2024-04-10T11:35:48.731Z,1021.71
2024-04-10T11:36:47.149Z,1021.72
2024-04-10T11:37:47.103Z,1021.80
2024-04-10T11:38:47.152Z,1021.78
2024-04-10T11:39:47.201Z,1021.76
2024-04-10T11:40:47.091Z,1021.79
2024-04-10T11:41:47.114Z,1021.85
2024-04-10T11:42:47.140Z,1021.87
2024-04-10T11:43:47.122Z,1021.88
2024-04-10T11:44:47.199Z,1021.92
2024-04-10T11:45:47.087Z,1021.93
2024-04-10T11:46:47.182Z,1021.94
2024-04-10T11:47:47.382Z,1021.97
2024-04-10T11:48:47.299Z,1021.92
2024-04-10T11:49:47.097Z,1021.91
2024-04-10T11:50:47.179Z,1021.95
2024-04-10T11:51:47.071Z,1021.97
2024-04-10T11:52:47.130Z,1021.97
2024-04-10T11:53:47.157Z,1021.95
2024-04-10T11:54:47.066Z,1022.00
2024-04-10T11:55:47.087Z,1021.95
2024-04-10T11:56:47.301Z,1021.99
2024-04-10T11:57:47.096Z,1022.00
2024-04-10T11:58:47.084Z,1022.05
2024-04-10T11:59:47.102Z,1022.08
2024-04-10T12:00:47.146Z,1022.10
2024-04-10T12:01:47.072Z,1022.17
2024-04-10T12:02:47.198Z,1022.11
2024-04-10T12:03:47.172Z,1022.13
2024-04-10T12:04:47.093Z,1022.16
2024-04-10T12:05:47.108Z,1022.14